No2 Toyomaru — JD2874 — position and weather

sailwx.info

Track history (hours):
 
Tides and Currents Weather Stations Pressure Air Temp Water Temp Dewpoint Dewpoint Depression Visibility Wind Speed Wind Dir Waves Ship Positions

No2 Toyomaru

Last reported at 2018-Feb-25 03:30 UTC. Time now 2018-Feb-25 03:56 UTC.
Position N 33°56' E 134°56'.

Length 124 m; draft 6.5 m.

Type: Cargo ship. MMSI: 431000859.

Date/timePositionNaut miles runAvg speedWind from/ knotsBaromVisibWave heightAir tempDewpointWater temp
2018-Feb-25 03:30N 33°56' E 134°56'817.0
2018-Feb-25 03:00N 33°49' E 135°02'14416.0
2018-Feb-24 17:59N 34°18' E 137°52'817.2
2018-Feb-24 17:30N 34°21' E 138°01'1016.6
2018-Feb-24 16:54N 34°24' E 138°13'816.1
2018-Feb-24 16:26N 34°26' E 138°22'716.2
2018-Feb-24 16:00N 34°27' E 138°30'1814.9
2018-Feb-24 14:47N 34°30' E 138°52'415.4
2018-Feb-24 14:30N 34°31' E 138°57'916.3
2018-Feb-24 13:56N 34°38' E 139°05'1117.5
2018-Feb-24 13:18N 34°46' E 139°14'817.1
2018-Feb-24 12:49N 34°51' E 139°21'617.3
2018-Feb-24 12:29N 34°55' E 139°27'817.4
2018-Feb-24 12:00N 35°00' E 139°35'917.6
2018-Feb-24 11:31N 35°06' E 139°43'815.9
2018-Feb-24 11:00N 35°13' E 139°46'613.0
2018-Feb-24 10:30N 35°19' E 139°43'714.3
2018-Feb-24 10:00N 35°26' E 139°45'917.5
2018-Feb-24 09:30N 35°31' E 139°54'816.4
2018-Feb-24 09:00N 35°35' E 140°03'3 5.5
2018-Feb-24 08:30N 35°36' E 140°06'0 0.0
2018-Feb-24 07:59N 35°36' E 140°06'0 0.0
2018-Feb-24 07:29N 35°36' E 140°06'0 0.0
2018-Feb-24 06:59N 35°36' E 140°06'1 2.7
2018-Feb-24 06:30N 35°37' E 140°05'0 0.1
2018-Feb-24 06:00N 35°37' E 140°05'0 0.0
2018-Feb-24 05:30N 35°37' E 140°05'0 0.0
2018-Feb-24 05:00N 35°37' E 140°05'0 0.0
2018-Feb-24 04:30N 35°37' E 140°05'0 0.0
2018-Feb-24 04:00N 35°37' E 140°05'0 0.0
2018-Feb-24 03:30N 35°37' E 140°05'0 0.0
2018-Feb-24 03:00N 35°37' E 140°05'0 0.0
2018-Feb-24 02:30N 35°37' E 140°05'0 0.0
2018-Feb-24 02:00N 35°37' E 140°05'0 0.0
2018-Feb-24 01:30N 35°37' E 140°05'0 0.0
2018-Feb-24 01:00N 35°37' E 140°05'0 0.0
2018-Feb-24 00:30N 35°37' E 140°05'0 0.0
2018-Feb-24 00:00N 35°37' E 140°05'0 0.0
2018-Feb-23 23:31N 35°37' E 140°05'1 2.7
2018-Feb-23 23:01N 35°36' E 140°06'0 0.3
2018-Feb-23 22:31N 35°36' E 140°06'0 0.0
2018-Feb-23 21:59N 35°36' E 140°06'0 0.0
2018-Feb-23 21:26N 35°36' E 140°06'0 0.0
2018-Feb-23 20:59N 35°36' E 140°06'0 0.0
2018-Feb-23 20:30N 35°36' E 140°06'3 5.8
2018-Feb-23 20:01N 35°35' E 140°03'815.5
2018-Feb-23 19:30N 35°31' E 139°55'816.2
2018-Feb-23 19:00N 35°25' E 139°48'612.5
2018-Feb-23 18:31N 35°20' E 139°44'611.5
2018-Feb-23 18:01N 35°14' E 139°47'815.9
2018-Feb-23 17:30N 35°07' E 139°44'917.1
2018-Feb-23 17:00N 35°00' E 139°37'917.2
2018-Feb-23 16:27N 34°55' E 139°28'817.2
2018-Feb-23 16:00N 34°50' E 139°20'917.7
2018-Feb-23 15:30N 34°44' E 139°13'917.4
2018-Feb-23 14:59N 34°37' E 139°05'816.5
2018-Feb-23 14:31N 34°32' E 138°58'917.0
2018-Feb-23 14:00N 34°31' E 138°47'917.4
2018-Feb-23 13:29N 34°31' E 138°36'917.8
2018-Feb-23 12:58N 34°32' E 138°25'818.1
2018-Feb-23 12:30N 34°32' E 138°15'1018.3
2018-Feb-23 11:59N 34°32' E 138°04'918.5
2018-Feb-23 11:29N 34°32' E 137°52'2418.2
2018-Feb-23 10:11N 34°32' E 137°23'318.0
2018-Feb-23 10:00N 34°32' E 137°19'917.6
2018-Feb-23 09:30N 34°32' E 137°09'814.6
2018-Feb-23 08:59N 34°34' E 136°60'715.5
2018-Feb-23 08:30N 34°41' E 136°59'816.9
2018-Feb-23 08:00N 34°49' E 136°56'510.1
2018-Feb-23 07:31N 34°54' E 136°59'0 0.1
2018-Feb-23 07:00N 34°54' E 136°59'0 0.0
2018-Feb-23 06:30N 34°54' E 136°59'0 0.0
2018-Feb-23 06:00N 34°54' E 136°59'0 0.0
2018-Feb-23 05:30N 34°54' E 136°59'0 0.0
2018-Feb-23 05:00N 34°54' E 136°59'0 0.1
2018-Feb-23 04:30N 34°54' E 136°59'510.2
2018-Feb-23 04:00N 34°49' E 136°56'815.6
2018-Feb-23 03:30N 34°42' E 136°59'1013.2
2018-Feb-23 02:45N 34°32' E 137°03'2815.6
2018-Feb-23 00:56N 34°06' E 136°48'7815.5
2018-Feb-22 19:53N 33°30' E 135°25'1417.0
2018-Feb-22 19:03N 33°39' E 135°12'217.8
2018-Feb-22 18:57N 33°40' E 135°10'817.6
2018-Feb-22 18:30N 33°46' E 135°05'917.6
2018-Feb-22 18:00N 33°53' E 134°58'917.3
2018-Feb-22 17:30N 33°60' E 134°52'917.7
2018-Feb-22 17:00N 34°07' E 134°45'817.1
2018-Feb-22 16:30N 34°14' E 134°39'714.5
2018-Feb-22 16:01N 34°18' E 134°32'917.1
2018-Feb-22 15:30N 34°21' E 134°22'816.8
2018-Feb-22 15:00N 34°24' E 134°13'7114.5
2018-Feb-22 10:06N 34°08' E 132°49'316.5
2018-Feb-22 09:54N 34°07' E 132°45'716.7
2018-Feb-22 09:30N 34°04' E 132°38'813.9
2018-Feb-22 08:57N 34°04' E 132°29'817.2
2018-Feb-22 08:30N 34°09' E 132°22'816.4
2018-Feb-22 08:00N 34°18' E 132°24'611.2
2018-Feb-22 07:30N 34°21' E 132°29'0 0.0
2018-Feb-22 06:54N 34°21' E 132°29'0 0.0
2018-Feb-22 06:30N 34°21' E 132°29'0 0.0
2018-Feb-22 05:57N 34°21' E 132°29'0 0.0
2018-Feb-22 05:30N 34°21' E 132°29'0 0.0
2018-Feb-22 05:00N 34°21' E 132°29'0 0.0
2018-Feb-22 04:30N 34°21' E 132°29'0 0.0
2018-Feb-22 04:00N 34°21' E 132°29'1 2.1
2018-Feb-22 03:26N 34°20' E 132°28'511.7
2018-Feb-22 03:00N 34°20' E 132°22'1 1.2
2018-Feb-22 02:28N 34°21' E 132°22'0 0.0
2018-Feb-22 02:01N 34°21' E 132°22'3 6.3
2018-Feb-22 01:30N 34°20' E 132°25'5 9.2
2018-Feb-22 01:00N 34°21' E 132°31'0 0.0
2018-Feb-22 00:29N 34°21' E 132°31'0 0.0
2018-Feb-21 23:59N 34°21' E 132°31'0 0.0
2018-Feb-21 23:30N 34°21' E 132°31'0 0.0
2018-Feb-21 23:00N 34°21' E 132°31'0 0.0
2018-Feb-21 22:29N 34°21' E 132°31'0 0.0
2018-Feb-21 21:59N 34°21' E 132°31'0 0.0
2018-Feb-21 21:29N 34°21' E 132°31'0 0.0
2018-Feb-21 20:59N 34°21' E 132°31'0 0.0
2018-Feb-21 20:29N 34°21' E 132°31'0 0.0
2018-Feb-21 19:59N 34°21' E 132°31'0 0.0
2018-Feb-21 19:29N 34°21' E 132°31'0 0.0
2018-Feb-21 18:59N 34°21' E 132°31'0 0.0
2018-Feb-21 18:29N 34°21' E 132°31'0 0.0
2018-Feb-21 17:59N 34°21' E 132°31'0 0.0
2018-Feb-21 17:29N 34°21' E 132°31'0 0.0
2018-Feb-21 16:59N 34°21' E 132°31'0 0.0
2018-Feb-21 16:29N 34°21' E 132°31'0 0.0
2018-Feb-21 15:59N 34°21' E 132°31'0 0.6
2018-Feb-21 15:30N 34°21' E 132°30'611.5
2018-Feb-21 15:00N 34°18' E 132°24'815.9
2018-Feb-21 14:30N 34°10' E 132°22'917.0
2018-Feb-21 14:00N 34°04' E 132°29'714.5
2018-Feb-21 13:31N 34°04' E 132°37'6711.4
2018-Feb-21 07:38N 34°25' E 133°55'4 2.1
2018-Feb-21 05:56N 34°26' E 133°59'815.0
2018-Feb-21 05:25N 34°26' E 134°08'717.1
2018-Feb-21 04:59N 34°23' E 134°16'817.6
2018-Feb-21 04:30N 34°20' E 134°26'917.6
2018-Feb-21 04:01N 34°17' E 134°36'1116.7
2018-Feb-21 03:22N 34°09' E 134°44'617.4
2018-Feb-21 03:00N 34°04' E 134°49'917.7
2018-Feb-21 02:30N 33°58' E 134°56'917.6
2018-Feb-21 02:00N 33°50' E 135°01'917.5
2018-Feb-21 01:30N 33°43' E 135°08'14115.9
2018-Feb-20 16:38N 34°18' E 137°53'216.0
2018-Feb-20 16:29N 34°19' E 137°56'916.0
2018-Feb-20 15:57N 34°22' E 138°06'715.4
2018-Feb-20 15:29N 34°25' E 138°14'814.6
2018-Feb-20 14:58N 34°26' E 138°23'714.0
2018-Feb-20 14:26N 34°28' E 138°32'613.1
2018-Feb-20 14:00N 34°29' E 138°38'1113.2
2018-Feb-20 13:09N 34°31' E 138°52'313.1
2018-Feb-20 12:56N 34°31' E 138°55'714.7
2018-Feb-20 12:28N 34°35' E 139°02'1317.7
2018-Feb-20 11:45N 34°45' E 139°12'817.0
2018-Feb-20 11:16N 34°51' E 139°18'517.1
2018-Feb-20 11:00N 34°54' E 139°23'816.7
2018-Feb-20 10:30N 34°59' E 139°31'916.9
2018-Feb-20 10:00N 35°04' E 139°39'816.9
2018-Feb-20 09:31N 35°11' E 139°45'612.5
2018-Feb-20 09:00N 35°17' E 139°45'713.4
2018-Feb-20 08:31N 35°24' E 139°42'816.7
2018-Feb-20 08:00N 35°29' E 139°51'917.0
2018-Feb-20 07:30N 35°33' E 139°60'612.0
2018-Feb-20 07:00N 35°36' E 140°06'0 0.3
2018-Feb-20 06:30N 35°36' E 140°06'0 0.0
2018-Feb-20 06:00N 35°36' E 140°06'0 0.0
2018-Feb-20 05:30N 35°36' E 140°06'0 0.8
2018-Feb-20 05:01N 35°35' E 140°06'1 2.7
2018-Feb-20 04:30N 35°37' E 140°05'0 0.0
2018-Feb-20 04:00N 35°37' E 140°05'0 0.0
2018-Feb-20 03:30N 35°37' E 140°05'0 0.0
2018-Feb-20 03:00N 35°37' E 140°05'0 0.0
2018-Feb-20 02:30N 35°37' E 140°05'0 0.0
2018-Feb-20 02:00N 35°37' E 140°05'0 0.0
2018-Feb-20 01:30N 35°37' E 140°05'0 0.0
2018-Feb-20 01:00N 35°37' E 140°05'0 0.0
2018-Feb-20 00:30N 35°37' E 140°05'0 0.0
2018-Feb-20 00:00N 35°37' E 140°05'0 0.0
2018-Feb-19 23:30N 35°37' E 140°05'1 1.6
2018-Feb-19 23:00N 35°36' E 140°05'1 1.6
2018-Feb-19 22:30N 35°36' E 140°06'0 0.0
2018-Feb-19 21:58N 35°36' E 140°06'0 0.0
2018-Feb-19 21:22N 35°36' E 140°06'0 0.0
2018-Feb-19 20:55N 35°36' E 140°06'0 0.0
2018-Feb-19 20:30N 35°36' E 140°06'4 8.0
2018-Feb-19 20:00N 35°34' E 140°02'816.5
2018-Feb-19 19:30N 35°30' E 139°53'815.8
2018-Feb-19 19:00N 35°24' E 139°46'612.8
2018-Feb-19 18:31N 35°18' E 139°45'713.0
2018-Feb-19 18:00N 35°12' E 139°47'816.7
2018-Feb-19 17:31N 35°05' E 139°42'816.5
2018-Feb-19 17:00N 34°58' E 139°35'917.0
2018-Feb-19 16:29N 34°53' E 139°26'817.7
2018-Feb-19 16:00N 34°48' E 139°18'1118.7
2018-Feb-19 15:26N 34°40' E 139°09'818.3
2018-Feb-19 15:00N 34°35' E 139°02'917.5
2018-Feb-19 14:30N 34°31' E 138°53'917.7
2018-Feb-19 14:00N 34°32' E 138°42'917.7
2018-Feb-19 13:30N 34°32' E 138°31'917.7
2018-Feb-19 12:59N 34°32' E 138°20'917.8
2018-Feb-19 12:30N 34°32' E 138°10'917.7
2018-Feb-19 12:00N 34°32' E 137°59'1017.4
2018-Feb-19 11:25N 34°32' E 137°47'1917.2
2018-Feb-19 10:19N 34°32' E 137°23'517.2
2018-Feb-19 10:01N 34°32' E 137°17'1217.0
2018-Feb-19 09:19N 34°31' E 137°03'413.1
2018-Feb-19 08:59N 34°35' E 136°59'713.7
2018-Feb-19 08:30N 34°41' E 136°59'714.7
2018-Feb-19 08:00N 34°48' E 136°57'611.9
2018-Feb-19 07:30N 34°54' E 136°59'0 0.1
2018-Feb-19 06:59N 34°54' E 136°59'0 0.0
2018-Feb-19 06:29N 34°54' E 136°59'0 0.0
2018-Feb-19 05:59N 34°54' E 136°59'0 0.0
2018-Feb-19 05:28N 34°54' E 136°59'0 0.0
2018-Feb-19 04:59N 34°54' E 136°59'0 0.0
2018-Feb-19 04:29N 34°54' E 136°59'0 0.1
2018-Feb-19 04:00N 34°54' E 136°59'510.9
2018-Feb-19 03:31N 34°49' E 136°57'815.9
2018-Feb-19 03:00N 34°41' E 136°59'814.2
2018-Feb-19 02:27N 34°33' E 137°01'3115.4
2018-Feb-19 00:28N 34°05' E 136°46'7615.5
2018-Feb-18 19:32N 33°29' E 135°25'116.6
2018-Feb-18 19:30N 33°30' E 135°25'1417.0
2018-Feb-18 18:41N 33°39' E 135°12'317.7
2018-Feb-18 18:30N 33°41' E 135°09'917.9
2018-Feb-18 18:00N 33°48' E 135°03'918.0
2018-Feb-18 17:30N 33°55' E 134°56'917.8
2018-Feb-18 17:00N 34°02' E 134°50'1017.9
2018-Feb-18 16:27N 34°10' E 134°42'818.1
2018-Feb-18 16:00N 34°16' E 134°36'917.4
2018-Feb-18 15:30N 34°19' E 134°26'917.2
2018-Feb-18 15:00N 34°23' E 134°17'916.7
2018-Feb-18 14:28N 34°26' E 134°07'7014.8
2018-Feb-18 09:43N 34°07' E 132°45'417.2
2018-Feb-18 09:30N 34°05' E 132°41'917.1
2018-Feb-18 09:00N 34°02' E 132°32'816.4
2018-Feb-18 08:30N 34°07' E 132°24'816.8
2018-Feb-18 08:00N 34°15' E 132°22'814.5
2018-Feb-18 07:28N 34°21' E 132°28'1 1.0
2018-Feb-18 06:56N 34°21' E 132°29'0 0.0
2018-Feb-18 06:29N 34°21' E 132°29'0 0.0
2018-Feb-18 05:59N 34°21' E 132°29'0 0.0
2018-Feb-18 05:26N 34°21' E 132°29'0 0.0
2018-Feb-18 04:59N 34°21' E 132°29'0 0.0
2018-Feb-18 04:29N 34°21' E 132°29'1 1.4
2018-Feb-18 03:57N 34°21' E 132°28'511.5
2018-Feb-18 03:30N 34°21' E 132°22'0 0.7
2018-Feb-18 03:01N 34°21' E 132°22'0 0.0
2018-Feb-18 02:30N 34°21' E 132°22'0 0.0
2018-Feb-18 02:01N 34°21' E 132°22'2 4.4
2018-Feb-18 01:30N 34°19' E 132°24'611.1
2018-Feb-18 01:00N 34°21' E 132°30'0 0.8
2018-Feb-18 00:28N 34°21' E 132°31'0 0.0
2018-Feb-17 23:58N 34°21' E 132°31'0 0.0
2018-Feb-17 23:25N 34°21' E 132°31'0 0.0
2018-Feb-17 22:58N 34°21' E 132°31'0 0.0
2018-Feb-17 22:28N 34°21' E 132°31'0 0.0
2018-Feb-17 21:58N 34°21' E 132°31'0 0.0
2018-Feb-17 21:28N 34°21' E 132°31'0 0.0
2018-Feb-17 20:52N 34°21' E 132°31'0 0.0
2018-Feb-17 20:28N 34°21' E 132°31'0 0.0
2018-Feb-17 19:58N 34°21' E 132°31'0 0.0
2018-Feb-17 19:28N 34°21' E 132°31'0 0.0
2018-Feb-17 19:00N 34°21' E 132°31'3 6.8
2018-Feb-17 18:30N 34°20' E 132°27'715.0
2018-Feb-17 18:00N 34°14' E 132°22'816.3
2018-Feb-17 17:30N 34°06' E 132°25'815.3
2018-Feb-17 16:57N 34°03' E 132°34'918.6
2018-Feb-17 16:27N 34°07' E 132°44'59 9.9
2018-Feb-17 10:29N 34°23' E 133°53'10 5.0
2018-Feb-17 08:26N 34°27' E 134°05'715.6
2018-Feb-17 07:59N 34°25' E 134°13'715.5
2018-Feb-17 07:30N 34°22' E 134°21'815.8
2018-Feb-17 07:01N 34°18' E 134°30'815.6
2018-Feb-17 06:30N 34°15' E 134°39'814.0
2018-Feb-17 05:57N 34°08' E 134°43'715.6
2018-Feb-17 05:30N 34°03' E 134°48'815.6
2018-Feb-17 05:00N 33°57' E 134°54'815.3
2018-Feb-17 04:30N 33°51' E 134°60'915.3
2018-Feb-17 03:54N 33°44' E 135°08'14414.8
2018-Feb-16 18:10N 34°19' E 137°56'416.4
2018-Feb-16 17:58N 34°20' E 137°60'815.7
2018-Feb-16 17:28N 34°23' E 138°08'814.9
2018-Feb-16 16:55N 34°26' E 138°18'614.4
2018-Feb-16 16:29N 34°27' E 138°25'714.2
2018-Feb-16 15:59N 34°28' E 138°34'914.6
2018-Feb-16 15:23N 34°29' E 138°44'714.8
2018-Feb-16 14:56N 34°31' E 138°52'613.6
2018-Feb-16 14:29N 34°33' E 138°59'715.0
2018-Feb-16 14:00N 34°39' E 139°04'1015.2
2018-Feb-16 13:20N 34°46' E 139°13'915.4
2018-Feb-16 12:44N 34°52' E 139°22'415.0
2018-Feb-16 12:29N 34°54' E 139°26'715.5
2018-Feb-16 12:00N 34°59' E 139°32'816.3
2018-Feb-16 11:31N 35°04' E 139°40'816.8
2018-Feb-16 11:00N 35°11' E 139°46'612.6
2018-Feb-16 10:31N 35°17' E 139°44'714.2
2018-Feb-16 10:00N 35°24' E 139°43'917.4
2018-Feb-16 09:30N 35°30' E 139°51'917.3
2018-Feb-16 09:00N 35°34' E 140°00'5 9.9
2018-Feb-16 08:30N 35°36' E 140°06'0 0.0
2018-Feb-16 07:59N 35°36' E 140°06'0 0.0
2018-Feb-16 07:29N 35°36' E 140°06'0 0.0
2018-Feb-16 06:56N 35°36' E 140°06'0 0.0
2018-Feb-16 06:30N 35°36' E 140°06'1 2.6
2018-Feb-16 06:00N 35°37' E 140°05'0 0.0
2018-Feb-16 05:29N 35°37' E 140°05'0 0.0
2018-Feb-16 04:53N 35°37' E 140°05'0 0.0
2018-Feb-16 04:29N 35°37' E 140°05'0 0.0
2018-Feb-16 03:59N 35°37' E 140°05'0 0.0
2018-Feb-16 03:29N 35°37' E 140°05'0 0.0
2018-Feb-16 02:59N 35°37' E 140°05'0 0.0
2018-Feb-16 02:29N 35°37' E 140°05'0 0.0
2018-Feb-16 01:59N 35°37' E 140°05'0 0.0
2018-Feb-16 01:29N 35°37' E 140°05'0 0.0
2018-Feb-16 00:59N 35°37' E 140°05'0 0.0
2018-Feb-16 00:29N 35°37' E 140°05'0 0.0
2018-Feb-15 23:59N 35°37' E 140°05'0 0.2
2018-Feb-15 23:31N 35°37' E 140°05'1 2.7
2018-Feb-15 23:00N 35°36' E 140°06'0 0.0
2018-Feb-15 22:28N 35°36' E 140°06'0 0.0
2018-Feb-15 21:58N 35°36' E 140°06'0 0.0
2018-Feb-15 21:28N 35°36' E 140°06'0 0.0
2018-Feb-15 20:58N 35°36' E 140°06'0 0.0
2018-Feb-15 20:30N 35°36' E 140°06'2 4.8
2018-Feb-15 20:00N 35°35' E 140°03'815.2
2018-Feb-15 19:30N 35°31' E 139°56'816.4
2018-Feb-15 19:01N 35°26' E 139°48'612.6
2018-Feb-15 18:30N 35°20' E 139°44'611.9
2018-Feb-15 18:00N 35°14' E 139°47'815.3
2018-Feb-15 17:30N 35°07' E 139°44'816.6
2018-Feb-15 17:00N 35°00' E 139°38'917.2
2018-Feb-15 16:30N 34°56' E 139°29'816.7
2018-Feb-15 16:00N 34°51' E 139°21'918.3
2018-Feb-15 15:29N 34°44' E 139°13'918.3
2018-Feb-15 15:00N 34°38' E 139°05'918.3
2018-Feb-15 14:30N 34°32' E 138°57'917.9
2018-Feb-15 14:00N 34°32' E 138°46'918.2
2018-Feb-15 13:30N 34°32' E 138°35'917.7
2018-Feb-15 13:00N 34°32' E 138°24'1018.3
2018-Feb-15 12:29N 34°32' E 138°12'918.3
2018-Feb-15 12:00N 34°32' E 138°02'917.1
2018-Feb-15 11:30N 34°32' E 137°51'1216.5
2018-Feb-15 10:48N 34°32' E 137°37'1117.1
2018-Feb-15 10:11N 34°32' E 137°24'317.4
2018-Feb-15 10:00N 34°32' E 137°21'0 0.9
2018-Feb-15 09:30N 34°32' E 137°20'917.5
2018-Feb-15 09:00N 34°32' E 137°10'815.2
2018-Feb-15 08:29N 34°34' E 137°00'714.1
2018-Feb-15 08:00N 34°40' E 136°59'816.4
2018-Feb-15 07:30N 34°48' E 136°57'611.7
2018-Feb-15 07:00N 34°54' E 136°58'0 0.2
2018-Feb-15 06:25N 34°54' E 136°59'0 0.0
2018-Feb-15 05:58N 34°54' E 136°59'0 0.0
2018-Feb-15 05:28N 34°54' E 136°59'0 0.0
2018-Feb-15 04:58N 34°54' E 136°59'0 0.0
2018-Feb-15 04:28N 34°54' E 136°59'0 0.0
2018-Feb-15 04:00N 34°54' E 136°59'5 9.1
2018-Feb-15 03:30N 34°50' E 136°57'  
Track history (hours):
 
Tides and Currents Weather Stations Pressure Air Temp Water Temp Dewpoint Dewpoint Depression Visibility Wind Speed Wind Dir Waves Ship Positions

No2 Toyomaru

Last reported at 2018-Feb-25 03:30 UTC. Time now 2018-Feb-25 03:56 UTC.
Position N 33°56' E 134°56'.

Length 124 m; draft 6.5 m.

Type: Cargo ship. MMSI: 431000859.

Date/timePositionNaut miles runAvg speedWind from/ knotsBaromVisibWave heightAir tempDewpointWater temp
2018-Feb-25 03:30N 33°56' E 134°56'817.0
2018-Feb-25 03:00N 33°49' E 135°02'14416.0
2018-Feb-24 17:59N 34°18' E 137°52'817.2
2018-Feb-24 17:30N 34°21' E 138°01'1016.6
2018-Feb-24 16:54N 34°24' E 138°13'816.1
2018-Feb-24 16:26N 34°26' E 138°22'716.2
2018-Feb-24 16:00N 34°27' E 138°30'1814.9
2018-Feb-24 14:47N 34°30' E 138°52'415.4
2018-Feb-24 14:30N 34°31' E 138°57'916.3
2018-Feb-24 13:56N 34°38' E 139°05'1117.5
2018-Feb-24 13:18N 34°46' E 139°14'817.1
2018-Feb-24 12:49N 34°51' E 139°21'617.3
2018-Feb-24 12:29N 34°55' E 139°27'817.4
2018-Feb-24 12:00N 35°00' E 139°35'917.6
2018-Feb-24 11:31N 35°06' E 139°43'815.9
2018-Feb-24 11:00N 35°13' E 139°46'613.0
2018-Feb-24 10:30N 35°19' E 139°43'714.3
2018-Feb-24 10:00N 35°26' E 139°45'917.5
2018-Feb-24 09:30N 35°31' E 139°54'816.4
2018-Feb-24 09:00N 35°35' E 140°03'3 5.5
2018-Feb-24 08:30N 35°36' E 140°06'0 0.0
2018-Feb-24 07:59N 35°36' E 140°06'0 0.0
2018-Feb-24 07:29N 35°36' E 140°06'0 0.0
2018-Feb-24 06:59N 35°36' E 140°06'1 2.7
2018-Feb-24 06:30N 35°37' E 140°05'0 0.1
2018-Feb-24 06:00N 35°37' E 140°05'0 0.0
2018-Feb-24 05:30N 35°37' E 140°05'0 0.0
2018-Feb-24 05:00N 35°37' E 140°05'0 0.0
2018-Feb-24 04:30N 35°37' E 140°05'0 0.0
2018-Feb-24 04:00N 35°37' E 140°05'0 0.0
2018-Feb-24 03:30N 35°37' E 140°05'0 0.0
2018-Feb-24 03:00N 35°37' E 140°05'0 0.0
2018-Feb-24 02:30N 35°37' E 140°05'0 0.0
2018-Feb-24 02:00N 35°37' E 140°05'0 0.0
2018-Feb-24 01:30N 35°37' E 140°05'0 0.0
2018-Feb-24 01:00N 35°37' E 140°05'0 0.0
2018-Feb-24 00:30N 35°37' E 140°05'0 0.0
2018-Feb-24 00:00N 35°37' E 140°05'0 0.0
2018-Feb-23 23:31N 35°37' E 140°05'1 2.7
2018-Feb-23 23:01N 35°36' E 140°06'0 0.3
2018-Feb-23 22:31N 35°36' E 140°06'0 0.0
2018-Feb-23 21:59N 35°36' E 140°06'0 0.0
2018-Feb-23 21:26N 35°36' E 140°06'0 0.0
2018-Feb-23 20:59N 35°36' E 140°06'0 0.0
2018-Feb-23 20:30N 35°36' E 140°06'3 5.8
2018-Feb-23 20:01N 35°35' E 140°03'815.5
2018-Feb-23 19:30N 35°31' E 139°55'816.2
2018-Feb-23 19:00N 35°25' E 139°48'612.5
2018-Feb-23 18:31N 35°20' E 139°44'611.5
2018-Feb-23 18:01N 35°14' E 139°47'815.9
2018-Feb-23 17:30N 35°07' E 139°44'917.1
2018-Feb-23 17:00N 35°00' E 139°37'917.2
2018-Feb-23 16:27N 34°55' E 139°28'817.2
2018-Feb-23 16:00N 34°50' E 139°20'917.7
2018-Feb-23 15:30N 34°44' E 139°13'917.4
2018-Feb-23 14:59N 34°37' E 139°05'816.5
2018-Feb-23 14:31N 34°32' E 138°58'917.0
2018-Feb-23 14:00N 34°31' E 138°47'917.4
2018-Feb-23 13:29N 34°31' E 138°36'917.8
2018-Feb-23 12:58N 34°32' E 138°25'818.1
2018-Feb-23 12:30N 34°32' E 138°15'1018.3
2018-Feb-23 11:59N 34°32' E 138°04'918.5
2018-Feb-23 11:29N 34°32' E 137°52'2418.2
2018-Feb-23 10:11N 34°32' E 137°23'318.0
2018-Feb-23 10:00N 34°32' E 137°19'917.6
2018-Feb-23 09:30N 34°32' E 137°09'814.6
2018-Feb-23 08:59N 34°34' E 136°60'715.5
2018-Feb-23 08:30N 34°41' E 136°59'816.9
2018-Feb-23 08:00N 34°49' E 136°56'510.1
2018-Feb-23 07:31N 34°54' E 136°59'0 0.1
2018-Feb-23 07:00N 34°54' E 136°59'0 0.0
2018-Feb-23 06:30N 34°54' E 136°59'0 0.0
2018-Feb-23 06:00N 34°54' E 136°59'0 0.0
2018-Feb-23 05:30N 34°54' E 136°59'0 0.0
2018-Feb-23 05:00N 34°54' E 136°59'0 0.1
2018-Feb-23 04:30N 34°54' E 136°59'510.2
2018-Feb-23 04:00N 34°49' E 136°56'815.6
2018-Feb-23 03:30N 34°42' E 136°59'1013.2
2018-Feb-23 02:45N 34°32' E 137°03'2815.6
2018-Feb-23 00:56N 34°06' E 136°48'7815.5
2018-Feb-22 19:53N 33°30' E 135°25'1417.0
2018-Feb-22 19:03N 33°39' E 135°12'217.8
2018-Feb-22 18:57N 33°40' E 135°10'817.6
2018-Feb-22 18:30N 33°46' E 135°05'917.6
2018-Feb-22 18:00N 33°53' E 134°58'917.3
2018-Feb-22 17:30N 33°60' E 134°52'917.7
2018-Feb-22 17:00N 34°07' E 134°45'817.1
2018-Feb-22 16:30N 34°14' E 134°39'714.5
2018-Feb-22 16:01N 34°18' E 134°32'917.1
2018-Feb-22 15:30N 34°21' E 134°22'816.8
2018-Feb-22 15:00N 34°24' E 134°13'7114.5
2018-Feb-22 10:06N 34°08' E 132°49'316.5
2018-Feb-22 09:54N 34°07' E 132°45'716.7
2018-Feb-22 09:30N 34°04' E 132°38'813.9
2018-Feb-22 08:57N 34°04' E 132°29'817.2
2018-Feb-22 08:30N 34°09' E 132°22'816.4
2018-Feb-22 08:00N 34°18' E 132°24'611.2
2018-Feb-22 07:30N 34°21' E 132°29'0 0.0
2018-Feb-22 06:54N 34°21' E 132°29'0 0.0
2018-Feb-22 06:30N 34°21' E 132°29'0 0.0
2018-Feb-22 05:57N 34°21' E 132°29'0 0.0
2018-Feb-22 05:30N 34°21' E 132°29'0 0.0
2018-Feb-22 05:00N 34°21' E 132°29'0 0.0
2018-Feb-22 04:30N 34°21' E 132°29'0 0.0
2018-Feb-22 04:00N 34°21' E 132°29'1 2.1
2018-Feb-22 03:26N 34°20' E 132°28'511.7
2018-Feb-22 03:00N 34°20' E 132°22'1 1.2
2018-Feb-22 02:28N 34°21' E 132°22'0 0.0
2018-Feb-22 02:01N 34°21' E 132°22'3 6.3
2018-Feb-22 01:30N 34°20' E 132°25'5 9.2
2018-Feb-22 01:00N 34°21' E 132°31'0 0.0
2018-Feb-22 00:29N 34°21' E 132°31'0 0.0
2018-Feb-21 23:59N 34°21' E 132°31'0 0.0
2018-Feb-21 23:30N 34°21' E 132°31'0 0.0
2018-Feb-21 23:00N 34°21' E 132°31'0 0.0
2018-Feb-21 22:29N 34°21' E 132°31'0 0.0
2018-Feb-21 21:59N 34°21' E 132°31'0 0.0
2018-Feb-21 21:29N 34°21' E 132°31'0 0.0
2018-Feb-21 20:59N 34°21' E 132°31'0 0.0
2018-Feb-21 20:29N 34°21' E 132°31'0 0.0
2018-Feb-21 19:59N 34°21' E 132°31'0 0.0
2018-Feb-21 19:29N 34°21' E 132°31'0 0.0
2018-Feb-21 18:59N 34°21' E 132°31'0 0.0
2018-Feb-21 18:29N 34°21' E 132°31'0 0.0
2018-Feb-21 17:59N 34°21' E 132°31'0 0.0
2018-Feb-21 17:29N 34°21' E 132°31'0 0.0
2018-Feb-21 16:59N 34°21' E 132°31'0 0.0
2018-Feb-21 16:29N 34°21' E 132°31'0 0.0
2018-Feb-21 15:59N 34°21' E 132°31'0 0.6
2018-Feb-21 15:30N 34°21' E 132°30'611.5
2018-Feb-21 15:00N 34°18' E 132°24'815.9
2018-Feb-21 14:30N 34°10' E 132°22'917.0
2018-Feb-21 14:00N 34°04' E 132°29'714.5
2018-Feb-21 13:31N 34°04' E 132°37'6711.4
2018-Feb-21 07:38N 34°25' E 133°55'4 2.1
2018-Feb-21 05:56N 34°26' E 133°59'815.0
2018-Feb-21 05:25N 34°26' E 134°08'717.1
2018-Feb-21 04:59N 34°23' E 134°16'817.6
2018-Feb-21 04:30N 34°20' E 134°26'917.6
2018-Feb-21 04:01N 34°17' E 134°36'1116.7
2018-Feb-21 03:22N 34°09' E 134°44'617.4
2018-Feb-21 03:00N 34°04' E 134°49'917.7
2018-Feb-21 02:30N 33°58' E 134°56'917.6
2018-Feb-21 02:00N 33°50' E 135°01'917.5
2018-Feb-21 01:30N 33°43' E 135°08'14115.9
2018-Feb-20 16:38N 34°18' E 137°53'216.0
2018-Feb-20 16:29N 34°19' E 137°56'916.0
2018-Feb-20 15:57N 34°22' E 138°06'715.4
2018-Feb-20 15:29N 34°25' E 138°14'814.6
2018-Feb-20 14:58N 34°26' E 138°23'714.0
2018-Feb-20 14:26N 34°28' E 138°32'613.1
2018-Feb-20 14:00N 34°29' E 138°38'1113.2
2018-Feb-20 13:09N 34°31' E 138°52'313.1
2018-Feb-20 12:56N 34°31' E 138°55'714.7
2018-Feb-20 12:28N 34°35' E 139°02'1317.7
2018-Feb-20 11:45N 34°45' E 139°12'817.0
2018-Feb-20 11:16N 34°51' E 139°18'517.1
2018-Feb-20 11:00N 34°54' E 139°23'816.7
2018-Feb-20 10:30N 34°59' E 139°31'916.9
2018-Feb-20 10:00N 35°04' E 139°39'816.9
2018-Feb-20 09:31N 35°11' E 139°45'612.5
2018-Feb-20 09:00N 35°17' E 139°45'713.4
2018-Feb-20 08:31N 35°24' E 139°42'816.7
2018-Feb-20 08:00N 35°29' E 139°51'917.0
2018-Feb-20 07:30N 35°33' E 139°60'612.0
2018-Feb-20 07:00N 35°36' E 140°06'0 0.3
2018-Feb-20 06:30N 35°36' E 140°06'0 0.0
2018-Feb-20 06:00N 35°36' E 140°06'0 0.0
2018-Feb-20 05:30N 35°36' E 140°06'0 0.8
2018-Feb-20 05:01N 35°35' E 140°06'1 2.7
2018-Feb-20 04:30N 35°37' E 140°05'0 0.0
2018-Feb-20 04:00N 35°37' E 140°05'0 0.0
2018-Feb-20 03:30N 35°37' E 140°05'0 0.0
2018-Feb-20 03:00N 35°37' E 140°05'0 0.0
2018-Feb-20 02:30N 35°37' E 140°05'0 0.0
2018-Feb-20 02:00N 35°37' E 140°05'0 0.0
2018-Feb-20 01:30N 35°37' E 140°05'0 0.0
2018-Feb-20 01:00N 35°37' E 140°05'0 0.0
2018-Feb-20 00:30N 35°37' E 140°05'0 0.0
2018-Feb-20 00:00N 35°37' E 140°05'0 0.0
2018-Feb-19 23:30N 35°37' E 140°05'1 1.6
2018-Feb-19 23:00N 35°36' E 140°05'1 1.6
2018-Feb-19 22:30N 35°36' E 140°06'0 0.0
2018-Feb-19 21:58N 35°36' E 140°06'0 0.0
2018-Feb-19 21:22N 35°36' E 140°06'0 0.0
2018-Feb-19 20:55N 35°36' E 140°06'0 0.0
2018-Feb-19 20:30N 35°36' E 140°06'4 8.0
2018-Feb-19 20:00N 35°34' E 140°02'816.5
2018-Feb-19 19:30N 35°30' E 139°53'815.8
2018-Feb-19 19:00N 35°24' E 139°46'612.8
2018-Feb-19 18:31N 35°18' E 139°45'713.0
2018-Feb-19 18:00N 35°12' E 139°47'816.7
2018-Feb-19 17:31N 35°05' E 139°42'816.5
2018-Feb-19 17:00N 34°58' E 139°35'917.0
2018-Feb-19 16:29N 34°53' E 139°26'817.7
2018-Feb-19 16:00N 34°48' E 139°18'1118.7
2018-Feb-19 15:26N 34°40' E 139°09'818.3
2018-Feb-19 15:00N 34°35' E 139°02'917.5
2018-Feb-19 14:30N 34°31' E 138°53'917.7
2018-Feb-19 14:00N 34°32' E 138°42'917.7
2018-Feb-19 13:30N 34°32' E 138°31'917.7
2018-Feb-19 12:59N 34°32' E 138°20'917.8
2018-Feb-19 12:30N 34°32' E 138°10'917.7
2018-Feb-19 12:00N 34°32' E 137°59'1017.4
2018-Feb-19 11:25N 34°32' E 137°47'1917.2
2018-Feb-19 10:19N 34°32' E 137°23'517.2
2018-Feb-19 10:01N 34°32' E 137°17'1217.0
2018-Feb-19 09:19N 34°31' E 137°03'413.1
2018-Feb-19 08:59N 34°35' E 136°59'713.7
2018-Feb-19 08:30N 34°41' E 136°59'714.7
2018-Feb-19 08:00N 34°48' E 136°57'611.9
2018-Feb-19 07:30N 34°54' E 136°59'0 0.1
2018-Feb-19 06:59N 34°54' E 136°59'0 0.0
2018-Feb-19 06:29N 34°54' E 136°59'0 0.0
2018-Feb-19 05:59N 34°54' E 136°59'0 0.0
2018-Feb-19 05:28N 34°54' E 136°59'0 0.0
2018-Feb-19 04:59N 34°54' E 136°59'0 0.0
2018-Feb-19 04:29N 34°54' E 136°59'0 0.1
2018-Feb-19 04:00N 34°54' E 136°59'510.9
2018-Feb-19 03:31N 34°49' E 136°57'815.9
2018-Feb-19 03:00N 34°41' E 136°59'814.2
2018-Feb-19 02:27N 34°33' E 137°01'3115.4
2018-Feb-19 00:28N 34°05' E 136°46'7615.5
2018-Feb-18 19:32N 33°29' E 135°25'116.6
2018-Feb-18 19:30N 33°30' E 135°25'1417.0
2018-Feb-18 18:41N 33°39' E 135°12'317.7
2018-Feb-18 18:30N 33°41' E 135°09'917.9
2018-Feb-18 18:00N 33°48' E 135°03'918.0
2018-Feb-18 17:30N 33°55' E 134°56'917.8
2018-Feb-18 17:00N 34°02' E 134°50'1017.9
2018-Feb-18 16:27N 34°10' E 134°42'818.1
2018-Feb-18 16:00N 34°16' E 134°36'917.4
2018-Feb-18 15:30N 34°19' E 134°26'917.2
2018-Feb-18 15:00N 34°23' E 134°17'916.7
2018-Feb-18 14:28N 34°26' E 134°07'7014.8
2018-Feb-18 09:43N 34°07' E 132°45'417.2
2018-Feb-18 09:30N 34°05' E 132°41'917.1
2018-Feb-18 09:00N 34°02' E 132°32'816.4
2018-Feb-18 08:30N 34°07' E 132°24'816.8
2018-Feb-18 08:00N 34°15' E 132°22'814.5
2018-Feb-18 07:28N 34°21' E 132°28'1 1.0
2018-Feb-18 06:56N 34°21' E 132°29'0 0.0
2018-Feb-18 06:29N 34°21' E 132°29'0 0.0
2018-Feb-18 05:59N 34°21' E 132°29'0 0.0
2018-Feb-18 05:26N 34°21' E 132°29'0 0.0
2018-Feb-18 04:59N 34°21' E 132°29'0 0.0
2018-Feb-18 04:29N 34°21' E 132°29'1 1.4
2018-Feb-18 03:57N 34°21' E 132°28'511.5
2018-Feb-18 03:30N 34°21' E 132°22'0 0.7
2018-Feb-18 03:01N 34°21' E 132°22'0 0.0
2018-Feb-18 02:30N 34°21' E 132°22'0 0.0
2018-Feb-18 02:01N 34°21' E 132°22'2 4.4
2018-Feb-18 01:30N 34°19' E 132°24'611.1
2018-Feb-18 01:00N 34°21' E 132°30'0 0.8
2018-Feb-18 00:28N 34°21' E 132°31'0 0.0
2018-Feb-17 23:58N 34°21' E 132°31'0 0.0
2018-Feb-17 23:25N 34°21' E 132°31'0 0.0
2018-Feb-17 22:58N 34°21' E 132°31'0 0.0
2018-Feb-17 22:28N 34°21' E 132°31'0 0.0
2018-Feb-17 21:58N 34°21' E 132°31'0 0.0
2018-Feb-17 21:28N 34°21' E 132°31'0 0.0
2018-Feb-17 20:52N 34°21' E 132°31'0 0.0
2018-Feb-17 20:28N 34°21' E 132°31'0 0.0
2018-Feb-17 19:58N 34°21' E 132°31'0 0.0
2018-Feb-17 19:28N 34°21' E 132°31'0 0.0
2018-Feb-17 19:00N 34°21' E 132°31'3 6.8
2018-Feb-17 18:30N 34°20' E 132°27'715.0
2018-Feb-17 18:00N 34°14' E 132°22'816.3
2018-Feb-17 17:30N 34°06' E 132°25'815.3
2018-Feb-17 16:57N 34°03' E 132°34'918.6
2018-Feb-17 16:27N 34°07' E 132°44'59 9.9
2018-Feb-17 10:29N 34°23' E 133°53'10 5.0
2018-Feb-17 08:26N 34°27' E 134°05'715.6
2018-Feb-17 07:59N 34°25' E 134°13'715.5
2018-Feb-17 07:30N 34°22' E 134°21'815.8
2018-Feb-17 07:01N 34°18' E 134°30'815.6
2018-Feb-17 06:30N 34°15' E 134°39'814.0
2018-Feb-17 05:57N 34°08' E 134°43'715.6
2018-Feb-17 05:30N 34°03' E 134°48'815.6
2018-Feb-17 05:00N 33°57' E 134°54'815.3
2018-Feb-17 04:30N 33°51' E 134°60'915.3
2018-Feb-17 03:54N 33°44' E 135°08'14414.8
2018-Feb-16 18:10N 34°19' E 137°56'416.4
2018-Feb-16 17:58N 34°20' E 137°60'815.7
2018-Feb-16 17:28N 34°23' E 138°08'814.9
2018-Feb-16 16:55N 34°26' E 138°18'614.4
2018-Feb-16 16:29N 34°27' E 138°25'714.2
2018-Feb-16 15:59N 34°28' E 138°34'914.6
2018-Feb-16 15:23N 34°29' E 138°44'714.8
2018-Feb-16 14:56N 34°31' E 138°52'613.6
2018-Feb-16 14:29N 34°33' E 138°59'715.0
2018-Feb-16 14:00N 34°39' E 139°04'1015.2
2018-Feb-16 13:20N 34°46' E 139°13'915.4
2018-Feb-16 12:44N 34°52' E 139°22'415.0
2018-Feb-16 12:29N 34°54' E 139°26'715.5
2018-Feb-16 12:00N 34°59' E 139°32'816.3
2018-Feb-16 11:31N 35°04' E 139°40'816.8
2018-Feb-16 11:00N 35°11' E 139°46'612.6
2018-Feb-16 10:31N 35°17' E 139°44'714.2
2018-Feb-16 10:00N 35°24' E 139°43'917.4
2018-Feb-16 09:30N 35°30' E 139°51'917.3
2018-Feb-16 09:00N 35°34' E 140°00'5 9.9
2018-Feb-16 08:30N 35°36' E 140°06'0 0.0
2018-Feb-16 07:59N 35°36' E 140°06'0 0.0
2018-Feb-16 07:29N 35°36' E 140°06'0 0.0
2018-Feb-16 06:56N 35°36' E 140°06'0 0.0
2018-Feb-16 06:30N 35°36' E 140°06'1 2.6
2018-Feb-16 06:00N 35°37' E 140°05'0 0.0
2018-Feb-16 05:29N 35°37' E 140°05'0 0.0
2018-Feb-16 04:53N 35°37' E 140°05'0 0.0
2018-Feb-16 04:29N 35°37' E 140°05'0 0.0
2018-Feb-16 03:59N 35°37' E 140°05'0 0.0
2018-Feb-16 03:29N 35°37' E 140°05'0 0.0
2018-Feb-16 02:59N 35°37' E 140°05'0 0.0
2018-Feb-16 02:29N 35°37' E 140°05'0 0.0
2018-Feb-16 01:59N 35°37' E 140°05'0 0.0
2018-Feb-16 01:29N 35°37' E 140°05'0 0.0
2018-Feb-16 00:59N 35°37' E 140°05'0 0.0
2018-Feb-16 00:29N 35°37' E 140°05'0 0.0
2018-Feb-15 23:59N 35°37' E 140°05'0 0.2
2018-Feb-15 23:31N 35°37' E 140°05'1 2.7
2018-Feb-15 23:00N 35°36' E 140°06'0 0.0
2018-Feb-15 22:28N 35°36' E 140°06'0 0.0
2018-Feb-15 21:58N 35°36' E 140°06'0 0.0
2018-Feb-15 21:28N 35°36' E 140°06'0 0.0
2018-Feb-15 20:58N 35°36' E 140°06'0 0.0
2018-Feb-15 20:30N 35°36' E 140°06'2 4.8
2018-Feb-15 20:00N 35°35' E 140°03'815.2
2018-Feb-15 19:30N 35°31' E 139°56'816.4
2018-Feb-15 19:01N 35°26' E 139°48'612.6
2018-Feb-15 18:30N 35°20' E 139°44'611.9
2018-Feb-15 18:00N 35°14' E 139°47'815.3
2018-Feb-15 17:30N 35°07' E 139°44'816.6
2018-Feb-15 17:00N 35°00' E 139°38'917.2
2018-Feb-15 16:30N 34°56' E 139°29'816.7
2018-Feb-15 16:00N 34°51' E 139°21'918.3
2018-Feb-15 15:29N 34°44' E 139°13'918.3
2018-Feb-15 15:00N 34°38' E 139°05'918.3
2018-Feb-15 14:30N 34°32' E 138°57'917.9
2018-Feb-15 14:00N 34°32' E 138°46'918.2
2018-Feb-15 13:30N 34°32' E 138°35'917.7
2018-Feb-15 13:00N 34°32' E 138°24'1018.3
2018-Feb-15 12:29N 34°32' E 138°12'918.3
2018-Feb-15 12:00N 34°32' E 138°02'917.1
2018-Feb-15 11:30N 34°32' E 137°51'1216.5
2018-Feb-15 10:48N 34°32' E 137°37'1117.1
2018-Feb-15 10:11N 34°32' E 137°24'317.4
2018-Feb-15 10:00N 34°32' E 137°21'0 0.9
2018-Feb-15 09:30N 34°32' E 137°20'917.5
2018-Feb-15 09:00N 34°32' E 137°10'815.2
2018-Feb-15 08:29N 34°34' E 137°00'714.1
2018-Feb-15 08:00N 34°40' E 136°59'816.4
2018-Feb-15 07:30N 34°48' E 136°57'611.7
2018-Feb-15 07:00N 34°54' E 136°58'0 0.2
2018-Feb-15 06:25N 34°54' E 136°59'0 0.0
2018-Feb-15 05:58N 34°54' E 136°59'0 0.0
2018-Feb-15 05:28N 34°54' E 136°59'0 0.0
2018-Feb-15 04:58N 34°54' E 136°59'0 0.0
2018-Feb-15 04:28N 34°54' E 136°59'0 0.0
2018-Feb-15 04:00N 34°54' E 136°59'5 9.1
2018-Feb-15 03:30N 34°50' E 136°57'  

Dump ship's entire track history